createdAt,value
2017-04-06T00:00:44.486Z,733.32
2017-04-06T00:01:44.467Z,733.26
2017-04-06T00:02:44.449Z,733.29
2017-04-06T00:03:44.431Z,733.27
2017-04-06T00:04:44.413Z,733.29
2017-04-06T00:05:44.393Z,733.29
2017-04-06T00:06:44.374Z,733.27
2017-04-06T00:07:44.356Z,733.23
2017-04-06T00:08:44.339Z,733.19
2017-04-06T00:09:44.318Z,733.2
2017-04-06T00:10:44.301Z,733.24
2017-04-06T00:11:44.284Z,733.24
2017-04-06T00:12:44.265Z,733.22
2017-04-06T00:13:44.244Z,733.19
2017-04-06T00:14:44.228Z,733.21
2017-04-06T00:15:44.209Z,733.21
2017-04-06T00:16:44.191Z,733.22
2017-04-06T00:17:44.171Z,733.23
2017-04-06T00:18:44.152Z,733.2
2017-04-06T00:19:44.134Z,733.21
2017-04-06T00:20:44.116Z,733.22
2017-04-06T00:21:44.098Z,733.16
2017-04-06T00:22:44.079Z,733.18
2017-04-06T00:23:44.061Z,733.19
2017-04-06T00:24:44.041Z,733.15
2017-04-06T00:25:44.023Z,733.17
2017-04-06T00:26:44.007Z,733.24
2017-04-06T00:27:43.988Z,733.24
2017-04-06T00:28:43.968Z,733.2
2017-04-06T00:29:43.952Z,733.17
2017-04-06T00:30:43.934Z,733.13
2017-04-06T00:31:43.915Z,733.13
2017-04-06T00:32:43.900Z,733.14
2017-04-06T00:33:43.881Z,733.15
2017-04-06T00:34:43.862Z,733.12
2017-04-06T00:35:43.845Z,733.09
2017-04-06T00:36:43.827Z,733.11
2017-04-06T00:37:43.811Z,733.14
2017-04-06T00:38:43.792Z,733.13
2017-04-06T00:39:43.776Z,733.14
2017-04-06T00:40:43.759Z,733.17
2017-04-06T00:41:43.742Z,733.16
2017-04-06T00:42:43.723Z,733.15
2017-04-06T00:43:43.705Z,733.15
2017-04-06T00:44:43.689Z,733.1
2017-04-06T00:45:43.671Z,733.03
2017-04-06T00:46:43.654Z,733.07
2017-04-06T00:47:43.638Z,733.08
2017-04-06T00:48:43.620Z,733.07
2017-04-06T00:49:43.604Z,733.1
2017-04-06T00:50:43.586Z,732.98
2017-04-06T00:51:43.569Z,732.98
2017-04-06T00:52:43.552Z,732.96
2017-04-06T00:53:43.534Z,733.05
2017-04-06T00:54:43.517Z,732.99
2017-04-06T00:55:43.498Z,733.01
2017-04-06T00:56:43.481Z,732.96
2017-04-06T00:57:43.462Z,732.99
2017-04-06T00:58:43.471Z,732.97
2017-04-06T00:59:43.428Z,732.94
2017-04-06T01:00:43.410Z,732.99
2017-04-06T01:01:43.392Z,732.98
2017-04-06T01:02:43.373Z,732.93
2017-04-06T01:03:43.357Z,732.98
2017-04-06T01:04:43.336Z,732.96
2017-04-06T01:05:43.319Z,732.92
2017-04-06T01:06:43.303Z,732.9
2017-04-06T01:07:43.284Z,732.92
2017-04-06T01:08:43.265Z,732.9
2017-04-06T01:09:43.250Z,732.87
2017-04-06T01:10:43.230Z,732.87
2017-04-06T01:11:43.213Z,732.88
2017-04-06T01:12:43.195Z,732.86
2017-04-06T01:13:43.176Z,732.8
2017-04-06T01:14:43.159Z,732.85
2017-04-06T01:15:43.138Z,732.88
2017-04-06T01:16:43.120Z,732.91
2017-04-06T01:17:43.101Z,732.87
2017-04-06T01:18:43.083Z,732.87
2017-04-06T01:19:43.064Z,732.89
2017-04-06T01:20:43.046Z,732.92
2017-04-06T01:21:43.029Z,732.9
2017-04-06T01:22:43.009Z,732.87
2017-04-06T01:23:42.990Z,732.81
2017-04-06T01:24:42.971Z,732.83
2017-04-06T01:25:42.955Z,732.84
2017-04-06T01:26:42.935Z,732.86
2017-04-06T01:27:42.915Z,732.78
2017-04-06T01:28:42.896Z,732.79
2017-04-06T01:29:42.879Z,732.72
2017-04-06T01:30:42.859Z,732.78
2017-04-06T01:31:42.840Z,732.79
2017-04-06T01:32:42.821Z,732.78
2017-04-06T01:33:42.803Z,732.78
2017-04-06T01:34:42.786Z,732.75
2017-04-06T01:35:42.764Z,732.71
2017-04-06T01:36:42.746Z,732.65
2017-04-06T01:37:42.725Z,732.61
2017-04-06T01:38:42.707Z,732.57
2017-04-06T01:39:42.688Z,732.57
2017-04-06T01:40:42.671Z,732.56
2017-04-06T01:41:42.649Z,732.55
2017-04-06T01:42:42.631Z,732.53
2017-04-06T01:43:42.611Z,732.58
2017-04-06T01:44:42.592Z,732.56
2017-04-06T01:45:42.774Z,732.58
2017-04-06T01:46:42.552Z,732.58
2017-04-06T01:47:42.532Z,732.53
2017-04-06T01:48:42.514Z,732.53
2017-04-06T01:49:42.494Z,732.53
2017-04-06T01:50:42.474Z,732.53
2017-04-06T01:51:42.456Z,732.56
2017-04-06T01:52:42.435Z,732.6
2017-04-06T01:53:42.415Z,732.57
2017-04-06T01:54:42.395Z,732.55
2017-04-06T01:55:42.376Z,732.54
2017-04-06T01:56:42.357Z,732.55
2017-04-06T01:57:42.341Z,732.52
2017-04-06T01:58:42.318Z,732.46
2017-04-06T01:59:42.299Z,732.5
2017-04-06T02:00:42.280Z,732.47
2017-04-06T02:01:42.258Z,732.45
2017-04-06T02:02:42.241Z,732.46
2017-04-06T02:03:42.321Z,732.42
2017-04-06T02:04:42.200Z,732.45
2017-04-06T02:05:42.182Z,732.43
2017-04-06T02:06:42.162Z,732.43
2017-04-06T02:07:42.142Z,732.37
2017-04-06T02:08:42.123Z,732.39
2017-04-06T02:09:42.102Z,732.4
2017-04-06T02:10:42.082Z,732.39
2017-04-06T02:11:42.064Z,732.37
2017-04-06T02:12:42.045Z,732.35
2017-04-06T02:13:42.025Z,732.3
2017-04-06T02:14:42.006Z,732.33
2017-04-06T02:15:41.985Z,732.37
2017-04-06T02:16:41.965Z,732.35
2017-04-06T02:17:41.944Z,732.31
2017-04-06T02:18:41.924Z,732.37
2017-04-06T02:19:42.107Z,732.39
2017-04-06T02:20:41.886Z,732.38
2017-04-06T02:21:41.865Z,732.37
2017-04-06T02:22:41.846Z,732.38
2017-04-06T02:23:41.826Z,732.26
2017-04-06T02:24:41.807Z,732.23
2017-04-06T02:25:41.786Z,732.35
2017-04-06T02:26:41.767Z,732.35
2017-04-06T02:27:41.746Z,732.38
2017-04-06T02:28:41.726Z,732.34
2017-04-06T02:29:41.705Z,732.29
2017-04-06T02:30:41.686Z,732.3
2017-04-06T02:31:41.666Z,732.3
2017-04-06T02:32:41.644Z,732.27
2017-04-06T02:33:41.625Z,732.2
2017-04-06T02:34:41.607Z,732.25
2017-04-06T02:35:41.587Z,732.26
2017-04-06T02:36:41.567Z,732.28
2017-04-06T02:37:41.547Z,732.25
2017-04-06T02:38:41.527Z,732.23
2017-04-06T02:39:41.506Z,732.24
2017-04-06T02:40:41.487Z,732.19
2017-04-06T02:41:41.468Z,732.22
2017-04-06T02:42:41.447Z,732.2
2017-04-06T02:43:41.433Z,732.22
2017-04-06T02:44:41.409Z,732.25
2017-04-06T02:45:41.388Z,732.22
2017-04-06T02:46:41.369Z,732.13
2017-04-06T02:47:41.348Z,732.27
2017-04-06T02:48:41.328Z,732.2
2017-04-06T02:49:41.310Z,732.21
2017-04-06T02:50:41.290Z,732.06
2017-04-06T02:51:41.270Z,732.12
2017-04-06T02:52:41.249Z,732.2
2017-04-06T02:53:41.230Z,732.21
2017-04-06T02:54:41.207Z,732.17
2017-04-06T02:55:41.189Z,732.18
2017-04-06T02:57:41.147Z,732.22
2017-04-06T02:58:41.128Z,732.17
2017-04-06T02:59:41.108Z,732.17
2017-04-06T03:00:41.088Z,732.11
2017-04-06T03:01:41.068Z,732.06
2017-04-06T03:02:41.048Z,732.09
2017-04-06T03:03:41.028Z,732.05
2017-04-06T03:04:41.007Z,732.02
2017-04-06T03:05:40.988Z,732.04
2017-04-06T03:06:40.969Z,732.07
2017-04-06T03:07:40.948Z,731.97
2017-04-06T03:08:40.928Z,732.04
2017-04-06T03:09:40.907Z,732.03
2017-04-06T03:10:40.891Z,732.02
2017-04-06T03:11:40.868Z,731.96
2017-04-06T03:12:40.848Z,731.97
2017-04-06T03:13:40.827Z,731.91
2017-04-06T03:14:40.807Z,731.9
2017-04-06T03:15:40.788Z,731.93
2017-04-06T03:16:40.767Z,731.9
2017-04-06T03:17:40.748Z,731.9
2017-04-06T03:18:40.729Z,731.91
2017-04-06T03:19:40.708Z,731.92
2017-04-06T03:20:40.687Z,731.89
2017-04-06T03:21:40.668Z,731.88
2017-04-06T03:22:40.646Z,731.94
2017-04-06T03:23:40.629Z,731.85
2017-04-06T03:24:40.605Z,731.86
2017-04-06T03:25:40.586Z,731.94
2017-04-06T03:26:40.564Z,732
2017-04-06T03:27:40.544Z,732.08
2017-04-06T03:28:40.523Z,732.05
2017-04-06T03:29:40.504Z,732.03
2017-04-06T03:30:40.482Z,732.01
2017-04-06T03:31:40.461Z,731.87
2017-04-06T03:32:40.441Z,731.96
2017-04-06T03:33:40.420Z,732.07
2017-04-06T03:34:40.400Z,732.11
2017-04-06T03:35:40.381Z,732.05
2017-04-06T03:36:40.359Z,732.08
2017-04-06T03:37:40.338Z,732.07
2017-04-06T03:38:40.316Z,732.11
2017-04-06T03:39:40.297Z,732.1
2017-04-06T03:40:40.277Z,732.08
2017-04-06T03:41:40.256Z,731.96
2017-04-06T03:42:40.234Z,731.81
2017-04-06T03:43:40.212Z,731.92
2017-04-06T03:44:40.193Z,731.99
2017-04-06T03:45:40.172Z,732.06
2017-04-06T03:46:40.151Z,732.08
2017-04-06T03:47:40.131Z,732.13
2017-04-06T03:48:40.109Z,732.16
2017-04-06T03:49:40.089Z,732.21
2017-04-06T03:50:40.068Z,732.22
2017-04-06T03:51:40.047Z,732.11
2017-04-06T03:52:40.026Z,732.15
2017-04-06T03:53:40.005Z,732.17
2017-04-06T03:54:39.985Z,732.17
2017-04-06T03:55:39.964Z,732.25
2017-04-06T03:56:39.943Z,732.1
2017-04-06T03:57:39.923Z,732.08
2017-04-06T03:58:39.902Z,732.1
2017-04-06T03:59:39.882Z,732.12
2017-04-06T04:00:39.861Z,732.13
2017-04-06T04:01:39.840Z,732.08
2017-04-06T04:02:39.820Z,732.15
2017-04-06T04:03:39.799Z,732.14
2017-04-06T04:04:39.783Z,732.16
2017-04-06T04:05:39.761Z,732.08
2017-04-06T04:06:39.738Z,732.15
2017-04-06T04:07:39.717Z,732.19
2017-04-06T04:08:39.697Z,732.15
2017-04-06T04:09:39.675Z,732.21
2017-04-06T04:10:39.656Z,732.28
2017-04-06T04:11:39.637Z,732.28
2017-04-06T04:12:39.615Z,732.27
2017-04-06T04:13:39.597Z,732.26
2017-04-06T04:14:39.577Z,732.24
2017-04-06T04:15:39.556Z,732.15
2017-04-06T04:16:39.536Z,732.14
2017-04-06T04:17:39.516Z,732.07
2017-04-06T04:18:39.494Z,732.18
2017-04-06T04:19:39.475Z,732.17
2017-04-06T04:20:39.455Z,732.15
2017-04-06T04:21:39.435Z,732.18
2017-04-06T04:22:39.414Z,732.14
2017-04-06T04:23:39.393Z,732.2
2017-04-06T04:24:39.374Z,732.21
2017-04-06T04:25:39.352Z,732.31
2017-04-06T04:26:39.333Z,732.25
2017-04-06T04:27:39.313Z,732.27
2017-04-06T04:28:39.291Z,732.32
2017-04-06T04:29:39.272Z,732.33
2017-04-06T04:30:39.251Z,732.33
2017-04-06T04:31:39.232Z,732.31
2017-04-06T04:32:39.210Z,732.3
2017-04-06T04:33:39.190Z,732.34
2017-04-06T04:34:39.171Z,732.36
2017-04-06T04:35:39.150Z,732.37
2017-04-06T04:36:39.130Z,732.34
2017-04-06T04:37:39.110Z,732.35
2017-04-06T04:38:39.091Z,732.42
2017-04-06T04:39:39.077Z,732.46
2017-04-06T04:40:39.051Z,732.45
2017-04-06T04:41:39.032Z,732.4
2017-04-06T04:42:39.013Z,732.4
2017-04-06T04:43:38.993Z,732.34
2017-04-06T04:44:38.974Z,732.39
2017-04-06T04:45:38.955Z,732.35
2017-04-06T04:46:38.935Z,732.39
2017-04-06T04:47:38.914Z,732.36
2017-04-06T04:48:38.894Z,732.47
2017-04-06T04:49:38.876Z,732.48
2017-04-06T04:50:38.856Z,732.54
2017-04-06T04:51:38.836Z,732.51
2017-04-06T04:52:38.816Z,732.52
2017-04-06T04:53:38.798Z,732.48
2017-04-06T04:54:38.777Z,732.5
2017-04-06T04:55:38.757Z,732.51
2017-04-06T04:56:38.738Z,732.53
2017-04-06T04:57:38.719Z,732.53
2017-04-06T04:58:38.699Z,732.53
2017-04-06T04:59:38.680Z,732.55
2017-04-06T05:00:38.661Z,732.41
2017-04-06T05:01:38.641Z,732.41
2017-04-06T05:02:38.620Z,732.46
2017-04-06T05:03:38.602Z,732.46
2017-04-06T05:04:38.582Z,732.52
2017-04-06T05:05:38.566Z,732.52
2017-04-06T05:06:38.541Z,732.53
2017-04-06T05:07:38.523Z,732.58
2017-04-06T05:08:38.502Z,732.59
2017-04-06T05:09:38.483Z,732.58
2017-04-06T05:10:38.463Z,732.62
2017-04-06T05:11:38.444Z,732.64
2017-04-06T05:12:38.424Z,732.64
2017-04-06T05:13:38.406Z,732.7
2017-04-06T05:14:38.385Z,732.66
2017-04-06T05:15:38.365Z,732.68
2017-04-06T05:16:38.343Z,732.68
2017-04-06T05:17:38.325Z,732.7
2017-04-06T05:18:38.334Z,732.67
2017-04-06T05:19:38.285Z,732.65
2017-04-06T05:20:38.266Z,732.68
2017-04-06T05:21:38.246Z,732.66
2017-04-06T05:22:38.226Z,732.73
2017-04-06T05:23:38.207Z,732.7
2017-04-06T05:24:38.187Z,732.71
2017-04-06T05:25:38.167Z,732.74
2017-04-06T05:26:38.146Z,732.72
2017-04-06T05:27:38.127Z,732.69
2017-04-06T05:28:38.107Z,732.64
2017-04-06T05:29:38.088Z,732.65
2017-04-06T05:30:38.068Z,732.62
2017-04-06T05:31:38.046Z,732.64
2017-04-06T05:32:38.028Z,732.61
2017-04-06T05:33:38.008Z,732.64
2017-04-06T05:34:37.989Z,732.67
2017-04-06T05:35:37.968Z,732.63
2017-04-06T05:36:37.948Z,732.67
2017-04-06T05:37:37.929Z,732.66
2017-04-06T05:38:37.907Z,732.73
2017-04-06T05:39:37.889Z,732.74
2017-04-06T05:40:37.869Z,732.72
2017-04-06T05:41:37.850Z,732.74
2017-04-06T05:42:37.831Z,732.75
2017-04-06T05:43:37.807Z,732.81
2017-04-06T05:44:37.788Z,732.86
2017-04-06T05:45:37.770Z,732.85
2017-04-06T05:46:37.750Z,732.8
2017-04-06T05:47:37.730Z,732.8
2017-04-06T05:48:37.710Z,732.8
2017-04-06T05:49:37.689Z,732.8
2017-04-06T05:50:37.670Z,732.81
2017-04-06T05:51:37.650Z,732.77
2017-04-06T05:52:37.630Z,732.77
2017-04-06T05:53:37.610Z,732.8
2017-04-06T05:54:37.590Z,732.84
2017-04-06T05:55:37.570Z,732.82
2017-04-06T05:56:37.550Z,732.82
2017-04-06T05:57:37.530Z,732.85
2017-04-06T05:58:37.512Z,732.85
2017-04-06T05:59:37.492Z,732.82
2017-04-06T06:00:37.471Z,732.81
2017-04-06T06:01:37.454Z,732.86
2017-04-06T06:02:37.432Z,732.83
2017-04-06T06:03:37.413Z,732.87
2017-04-06T06:04:37.394Z,732.9
2017-04-06T06:05:37.374Z,732.9
2017-04-06T06:06:37.360Z,732.91
2017-04-06T06:07:37.334Z,732.94
2017-04-06T06:08:37.316Z,732.9
2017-04-06T06:09:37.297Z,732.93
2017-04-06T06:10:37.278Z,732.89
2017-04-06T06:11:37.258Z,732.87
2017-04-06T06:12:37.238Z,732.85
2017-04-06T06:13:37.218Z,732.81
2017-04-06T06:14:37.199Z,732.81
2017-04-06T06:15:37.180Z,732.76
2017-04-06T06:16:37.161Z,732.8
2017-04-06T06:17:37.141Z,732.69
2017-04-06T06:18:37.121Z,732.73
2017-04-06T06:19:37.101Z,732.7
2017-04-06T06:20:37.084Z,732.7
2017-04-06T06:21:37.060Z,732.79
2017-04-06T06:22:37.041Z,732.83
2017-04-06T06:23:37.021Z,732.73
2017-04-06T06:24:37.001Z,732.72
2017-04-06T06:25:36.982Z,732.84
2017-04-06T06:26:36.961Z,732.82
2017-04-06T06:27:36.941Z,732.84
2017-04-06T06:28:36.921Z,732.7
2017-04-06T06:29:36.927Z,732.83
2017-04-06T06:30:36.880Z,732.9
2017-04-06T06:31:36.862Z,732.89
2017-04-06T06:32:36.842Z,732.85
2017-04-06T06:33:36.821Z,732.94
2017-04-06T06:34:36.802Z,732.96
2017-04-06T06:35:36.782Z,732.91
2017-04-06T06:36:36.765Z,732.92
2017-04-06T06:37:36.741Z,732.91
2017-04-06T06:38:36.722Z,732.93
2017-04-06T06:39:36.702Z,732.86
2017-04-06T06:40:36.682Z,732.89
2017-04-06T06:41:36.663Z,732.91
2017-04-06T06:42:36.642Z,732.98
2017-04-06T06:43:36.622Z,733
2017-04-06T06:44:36.602Z,733
2017-04-06T06:45:36.581Z,733
2017-04-06T06:46:36.562Z,732.97
2017-04-06T06:47:36.541Z,732.85
2017-04-06T06:48:36.523Z,732.95
2017-04-06T06:49:36.500Z,732.86
2017-04-06T06:50:36.482Z,732.91
2017-04-06T06:51:36.460Z,732.94
2017-04-06T06:52:36.439Z,732.98
2017-04-06T06:53:36.419Z,732.93
2017-04-06T06:54:36.400Z,732.96
2017-04-06T06:55:36.380Z,732.96
2017-04-06T06:56:36.359Z,732.95
2017-04-06T06:57:36.340Z,732.92
2017-04-06T06:58:36.319Z,732.9
2017-04-06T06:59:36.299Z,732.91
2017-04-06T07:00:36.280Z,732.99
2017-04-06T07:01:36.260Z,733.02
2017-04-06T07:02:36.238Z,732.93
2017-04-06T07:03:36.219Z,732.93
2017-04-06T07:04:36.199Z,732.95
2017-04-06T07:05:36.181Z,732.92
2017-04-06T07:06:36.160Z,732.93
2017-04-06T07:07:36.140Z,732.96
2017-04-06T07:08:36.122Z,733
2017-04-06T07:09:36.103Z,732.99
2017-04-06T07:10:36.082Z,732.89
2017-04-06T07:11:36.063Z,732.94
2017-04-06T07:12:36.045Z,732.9
2017-04-06T07:13:36.050Z,732.97
2017-04-06T07:14:36.006Z,732.92
2017-04-06T07:15:35.987Z,732.93
2017-04-06T07:16:35.968Z,732.98
2017-04-06T07:17:35.947Z,732.98
2017-04-06T07:18:35.928Z,732.98
2017-04-06T07:19:35.909Z,732.97
2017-04-06T07:20:35.889Z,732.94
2017-04-06T07:21:35.871Z,733.01
2017-04-06T07:22:35.851Z,733.08
2017-04-06T07:23:35.831Z,733.02
2017-04-06T07:24:35.836Z,733.03
2017-04-06T07:25:35.793Z,732.99
2017-04-06T07:26:35.775Z,732.99
2017-04-06T07:27:35.754Z,733.07
2017-04-06T07:28:35.735Z,733.01
2017-04-06T07:29:35.715Z,732.96
2017-04-06T07:30:35.696Z,733.05
2017-04-06T07:31:35.675Z,733.05
2017-04-06T07:32:35.656Z,733.1
2017-04-06T07:33:35.636Z,733.06
2017-04-06T07:34:35.617Z,733.12
2017-04-06T07:35:35.597Z,733.08
2017-04-06T07:36:35.577Z,733.07
2017-04-06T07:37:35.561Z,732.98
2017-04-06T07:38:35.539Z,733.08
2017-04-06T07:39:35.518Z,733.13
2017-04-06T07:40:35.499Z,733.15
2017-04-06T07:41:35.479Z,733.14
2017-04-06T07:42:35.459Z,733.15
2017-04-06T07:43:35.438Z,733.13
2017-04-06T07:44:35.420Z,733.2
2017-04-06T07:45:35.401Z,733.17
2017-04-06T07:46:35.380Z,733.24
2017-04-06T07:47:35.359Z,733.22
2017-04-06T07:48:35.339Z,733.25
2017-04-06T07:49:35.320Z,733.22
2017-04-06T07:50:35.301Z,733.27
2017-04-06T07:51:35.306Z,733.25
2017-04-06T07:52:35.262Z,733.28
2017-04-06T07:53:35.240Z,733.29
2017-04-06T07:54:35.226Z,733.35
2017-04-06T07:55:35.203Z,733.34
2017-04-06T07:56:35.184Z,733.33
2017-04-06T07:57:35.165Z,733.27
2017-04-06T07:58:35.143Z,733.32
2017-04-06T07:59:35.124Z,733.27
2017-04-06T08:00:35.105Z,733.28
2017-04-06T08:01:35.085Z,733.27
2017-04-06T08:02:35.067Z,733.3
2017-04-06T08:03:35.047Z,733.28
2017-04-06T08:04:35.027Z,733.32
2017-04-06T08:05:35.006Z,733.37
2017-04-06T08:06:34.988Z,733.37
2017-04-06T08:07:34.969Z,733.33
2017-04-06T08:08:34.951Z,733.36
2017-04-06T08:09:34.932Z,733.35
2017-04-06T08:10:34.913Z,733.37
2017-04-06T08:11:34.894Z,733.4
2017-04-06T08:12:34.875Z,733.36
2017-04-06T08:13:34.854Z,733.32
2017-04-06T08:14:34.837Z,733.3
2017-04-06T08:15:34.819Z,733.4
2017-04-06T08:16:34.799Z,733.4
2017-04-06T08:17:34.781Z,733.37
2017-04-06T08:18:34.764Z,733.42
2017-04-06T08:19:34.745Z,733.46
2017-04-06T08:20:34.726Z,733.46
2017-04-06T08:21:34.708Z,733.45
2017-04-06T08:22:34.691Z,733.49
2017-04-06T08:23:34.671Z,733.5
2017-04-06T08:24:34.652Z,733.5
2017-04-06T08:25:34.634Z,733.56
2017-04-06T08:26:34.617Z,733.49
2017-04-06T08:27:34.598Z,733.5
2017-04-06T08:28:34.605Z,733.52
2017-04-06T08:29:34.562Z,733.56
2017-04-06T08:30:34.543Z,733.52
2017-04-06T08:31:34.525Z,733.46
2017-04-06T08:32:34.506Z,733.49
2017-04-06T08:33:34.490Z,733.5
2017-04-06T08:34:34.472Z,733.51
2017-04-06T08:35:34.454Z,733.55
2017-04-06T08:36:34.436Z,733.59
2017-04-06T08:37:34.418Z,733.55
2017-04-06T08:38:34.401Z,733.55
2017-04-06T08:39:34.385Z,733.58
2017-04-06T08:40:34.368Z,733.61
2017-04-06T08:41:34.350Z,733.58
2017-04-06T08:42:34.332Z,733.58
2017-04-06T08:43:34.315Z,733.57
2017-04-06T08:44:34.299Z,733.58
2017-04-06T08:45:34.280Z,733.58
2017-04-06T08:46:34.263Z,733.59
2017-04-06T08:47:34.247Z,733.61
2017-04-06T08:48:34.227Z,733.54
2017-04-06T08:49:34.210Z,733.52
2017-04-06T08:50:34.194Z,733.62
2017-04-06T08:51:34.177Z,733.62
2017-04-06T08:52:34.159Z,733.51
2017-04-06T08:53:34.141Z,733.59
2017-04-06T08:54:34.123Z,733.6
2017-04-06T08:55:34.106Z,733.62
2017-04-06T08:56:34.090Z,733.56
2017-04-06T08:57:34.071Z,733.59
2017-04-06T08:58:34.055Z,733.55
2017-04-06T08:59:34.035Z,733.55
2017-04-06T09:00:34.018Z,733.61
2017-04-06T09:01:34.001Z,733.53
2017-04-06T09:02:33.984Z,733.53
2017-04-06T09:03:33.966Z,733.52
2017-04-06T09:04:33.946Z,733.55
2017-04-06T09:05:33.930Z,733.55
2017-04-06T09:06:33.909Z,733.52
2017-04-06T09:07:33.893Z,733.55
2017-04-06T09:08:33.874Z,733.49
2017-04-06T09:09:33.855Z,733.43
2017-04-06T09:10:33.837Z,733.35
2017-04-06T09:11:33.819Z,733.5
2017-04-06T09:12:33.804Z,733.54
2017-04-06T09:13:33.781Z,733.51
2017-04-06T09:14:33.763Z,733.55
2017-04-06T09:15:33.742Z,733.6
2017-04-06T09:16:33.725Z,733.57
2017-04-06T09:17:33.706Z,733.56
2017-04-06T09:18:33.687Z,733.58
2017-04-06T09:19:33.668Z,733.67
2017-04-06T09:20:33.653Z,733.61
2017-04-06T09:21:33.630Z,733.66
2017-04-06T09:22:33.629Z,733.6
2017-04-06T09:23:33.594Z,733.71
2017-04-06T09:24:33.575Z,733.72
2017-04-06T09:25:33.556Z,733.64
2017-04-06T09:26:33.539Z,733.59
2017-04-06T09:27:33.519Z,733.72
2017-04-06T09:28:33.501Z,733.8
2017-04-06T09:29:33.482Z,733.81
2017-04-06T09:30:33.463Z,733.75
2017-04-06T09:31:33.445Z,733.73
2017-04-06T09:32:33.427Z,733.77
2017-04-06T09:33:33.408Z,733.76
2017-04-06T09:34:33.391Z,733.79
2017-04-06T09:35:33.384Z,733.65
2017-04-06T09:36:33.353Z,733.66
2017-04-06T09:37:33.335Z,733.55
2017-04-06T09:38:33.318Z,733.62
2017-04-06T09:39:33.299Z,733.55
2017-04-06T09:40:33.279Z,733.43
2017-04-06T09:41:33.262Z,733.53
2017-04-06T09:42:33.244Z,733.57
2017-04-06T09:43:33.223Z,733.59
2017-04-06T09:44:33.212Z,733.66
2017-04-06T09:45:33.204Z,733.59
2017-04-06T09:46:33.184Z,733.56
2017-04-06T09:47:33.161Z,733.6
2017-04-06T09:48:33.130Z,733.71
2017-04-06T09:49:33.124Z,733.77
2017-04-06T09:50:33.103Z,733.7
2017-04-06T09:51:33.072Z,733.7
2017-04-06T09:52:33.053Z,733.68
2017-04-06T09:53:33.048Z,733.77
2017-04-06T09:54:33.029Z,733.66
2017-04-06T09:55:32.996Z,733.68
2017-04-06T09:56:32.976Z,733.74
2017-04-06T09:57:32.958Z,733.85
2017-04-06T09:58:32.937Z,733.74
2017-04-06T09:59:32.919Z,733.75
2017-04-06T10:00:32.900Z,733.83
2017-04-06T10:01:32.881Z,733.85
2017-04-06T10:02:32.861Z,733.89
2017-04-06T10:03:32.843Z,733.75
2017-04-06T10:04:32.823Z,733.92
2017-04-06T10:05:32.802Z,733.8
2017-04-06T10:06:32.785Z,733.86
2017-04-06T10:07:32.765Z,733.92
2017-04-06T10:08:32.748Z,733.87
2017-04-06T10:09:32.727Z,733.81
2017-04-06T10:10:32.709Z,733.83
2017-04-06T10:11:32.690Z,733.82
2017-04-06T10:12:32.670Z,733.82
2017-04-06T10:13:32.653Z,733.71
2017-04-06T10:14:32.633Z,733.61
2017-04-06T10:15:32.615Z,733.78
2017-04-06T10:16:32.600Z,733.78
2017-04-06T10:17:32.578Z,733.88
2017-04-06T10:18:32.560Z,733.85
2017-04-06T10:19:32.540Z,733.89
2017-04-06T10:20:32.522Z,733.92
2017-04-06T10:21:32.502Z,733.83
2017-04-06T10:22:32.484Z,733.89
2017-04-06T10:23:32.469Z,733.96
2017-04-06T10:24:32.451Z,733.97
2017-04-06T10:25:32.427Z,733.88
2017-04-06T10:26:32.410Z,733.96
2017-04-06T10:27:32.388Z,733.84
2017-04-06T10:28:32.370Z,733.93
2017-04-06T10:29:32.404Z,734.02
2017-04-06T10:30:32.333Z,733.91
2017-04-06T10:31:32.314Z,733.93
2017-04-06T10:32:32.316Z,734
2017-04-06T10:33:32.277Z,733.97
2017-04-06T10:34:32.257Z,733.92
2017-04-06T10:35:32.240Z,733.82
2017-04-06T10:36:32.222Z,733.97
2017-04-06T10:37:32.204Z,733.99
2017-04-06T10:38:32.184Z,734.01
2017-04-06T10:39:32.166Z,733.9
2017-04-06T10:40:32.147Z,733.82
2017-04-06T10:41:32.127Z,733.77
2017-04-06T10:42:32.109Z,733.74
2017-04-06T10:43:32.090Z,733.72
2017-04-06T10:44:32.072Z,733.77
2017-04-06T10:45:32.051Z,733.78
2017-04-06T10:46:32.032Z,733.76
2017-04-06T10:47:32.014Z,733.67
2017-04-06T10:48:31.993Z,733.78
2017-04-06T10:49:31.975Z,733.98
2017-04-06T10:50:31.955Z,733.93
2017-04-06T10:51:31.936Z,733.77
2017-04-06T10:52:31.915Z,733.88
2017-04-06T10:53:31.897Z,733.88
2017-04-06T10:54:31.878Z,733.85
2017-04-06T10:55:31.862Z,733.86
2017-04-06T10:56:31.837Z,733.85
2017-04-06T10:57:31.820Z,733.85
2017-04-06T10:58:31.802Z,733.83
2017-04-06T10:59:31.783Z,733.9
2017-04-06T11:00:31.765Z,733.92
2017-04-06T11:01:31.746Z,733.92
2017-04-06T11:02:31.728Z,734.06
2017-04-06T11:03:31.708Z,733.99
2017-04-06T11:04:31.691Z,734.01
2017-04-06T11:05:31.671Z,733.83
2017-04-06T11:06:31.652Z,733.95
2017-04-06T11:07:31.633Z,733.84
2017-04-06T11:08:31.616Z,733.99
2017-04-06T11:09:31.597Z,733.99
2017-04-06T11:10:31.579Z,733.9
2017-04-06T11:11:31.562Z,733.88
2017-04-06T11:12:31.541Z,733.78
2017-04-06T11:13:31.522Z,733.88
2017-04-06T11:14:31.502Z,733.94
2017-04-06T11:15:31.483Z,733.93
2017-04-06T11:16:31.465Z,733.93
2017-04-06T11:17:31.445Z,734.04
2017-04-06T11:18:31.425Z,734.02
2017-04-06T11:19:31.407Z,733.86
2017-04-06T11:20:31.388Z,733.96
2017-04-06T11:21:31.368Z,733.94
2017-04-06T11:22:31.350Z,733.78
2017-04-06T11:23:31.329Z,734.04
2017-04-06T11:24:31.310Z,733.97
2017-04-06T11:25:31.291Z,733.92
2017-04-06T11:26:31.273Z,733.97
2017-04-06T11:27:31.253Z,733.97
2017-04-06T11:28:31.234Z,734.06
2017-04-06T11:29:31.212Z,734.01
2017-04-06T11:30:31.195Z,733.91
2017-04-06T11:31:31.175Z,733.89
2017-04-06T11:32:31.163Z,733.9
2017-04-06T11:33:31.136Z,733.96
2017-04-06T11:34:31.119Z,734.03
2017-04-06T11:35:31.099Z,734.03
2017-04-06T11:36:31.078Z,733.96
2017-04-06T11:37:31.060Z,734.06
2017-04-06T11:38:31.040Z,734.13
2017-04-06T11:39:31.021Z,734.04
2017-04-06T11:40:31.002Z,734.11
2017-04-06T11:41:30.984Z,734.14
2017-04-06T11:42:30.965Z,734.09
2017-04-06T11:43:30.948Z,733.95
2017-04-06T11:44:30.929Z,733.93
2017-04-06T11:45:30.909Z,733.97
2017-04-06T11:46:30.891Z,734.04
2017-04-06T11:47:30.871Z,734.06
2017-04-06T11:48:30.852Z,734.06
2017-04-06T11:49:30.836Z,733.98
2017-04-06T11:50:30.818Z,734.02
2017-04-06T11:51:30.798Z,733.98
2017-04-06T11:52:30.779Z,734.02
2017-04-06T11:53:30.760Z,734.02
2017-04-06T11:54:30.743Z,734
2017-04-06T11:55:30.723Z,734.04
2017-04-06T11:56:30.706Z,734.08
2017-04-06T11:57:30.685Z,734.07
2017-04-06T11:58:30.666Z,734.07
2017-04-06T11:59:30.647Z,733.98
2017-04-06T12:00:30.629Z,734.11
2017-04-06T12:01:30.610Z,734.11
2017-04-06T12:02:30.590Z,734.19
2017-04-06T12:03:30.571Z,734.25
2017-04-06T12:04:30.554Z,734.12
2017-04-06T12:05:30.535Z,734.21
2017-04-06T12:06:30.516Z,734.16
2017-04-06T12:07:30.498Z,734.09
2017-04-06T12:08:30.478Z,733.99
2017-04-06T12:09:30.460Z,734
2017-04-06T12:10:30.441Z,734.02
2017-04-06T12:11:30.423Z,734
2017-04-06T12:12:30.404Z,733.99
2017-04-06T12:13:30.383Z,733.87
2017-04-06T12:14:30.365Z,733.86
2017-04-06T12:15:30.346Z,733.94
2017-04-06T12:16:30.326Z,733.93
2017-04-06T12:17:30.307Z,733.9
2017-04-06T12:18:30.290Z,733.8
2017-04-06T12:19:30.271Z,733.82
2017-04-06T12:20:30.250Z,733.89
2017-04-06T12:21:30.232Z,734.01
2017-04-06T12:22:30.212Z,733.94
2017-04-06T12:23:30.194Z,733.97
2017-04-06T12:24:30.174Z,733.88
2017-04-06T12:25:30.153Z,733.95
2017-04-06T12:26:30.135Z,734.08
2017-04-06T12:27:30.114Z,733.92
2017-04-06T12:28:30.095Z,734
2017-04-06T12:29:30.076Z,734.02
2017-04-06T12:30:30.054Z,734.04
2017-04-06T12:31:30.034Z,734.25
2017-04-06T12:32:30.016Z,734.19